createdAt,value
2023-03-26T00:00:43.754Z,0
2023-03-26T00:01:52.994Z,0
2023-03-26T00:03:02.086Z,0
2023-03-26T00:04:10.312Z,0
2023-03-26T00:05:19.450Z,0
2023-03-26T00:06:28.614Z,0
2023-03-26T00:07:37.775Z,0
2023-03-26T00:08:46.991Z,0
2023-03-26T00:09:56.128Z,0
2023-03-26T00:11:05.307Z,0
2023-03-26T00:12:14.496Z,0
2023-03-26T00:13:23.653Z,0
2023-03-26T00:15:41.995Z,0
2023-03-26T00:16:51.168Z,0
2023-03-26T00:18:00.347Z,0
2023-03-26T00:19:08.531Z,0
2023-03-26T00:20:17.742Z,0
2023-03-26T00:21:26.879Z,0
2023-03-26T00:22:36.054Z,0
2023-03-26T00:23:45.223Z,0
2023-03-26T00:24:54.396Z,0
2023-03-26T00:26:03.563Z,0
2023-03-26T00:27:12.741Z,0
2023-03-26T00:28:21.909Z,0
2023-03-26T00:29:31.144Z,0
2023-03-26T00:30:40.258Z,0
2023-03-26T00:31:49.497Z,0
2023-03-26T00:32:57.629Z,0
2023-03-26T00:34:05.900Z,0
2023-03-26T00:35:14.014Z,0
2023-03-26T00:36:22.232Z,0
2023-03-26T00:37:31.430Z,0
2023-03-26T00:38:40.646Z,0
2023-03-26T00:39:49.782Z,0
2023-03-26T00:40:59.047Z,0
2023-03-26T00:42:08.144Z,0
2023-03-26T00:43:17.225Z,0
2023-03-26T00:44:26.474Z,0
2023-03-26T00:45:35.576Z,0
2023-03-26T00:46:44.867Z,0
2023-03-26T00:47:53.915Z,0
2023-03-26T00:49:03.220Z,0
2023-03-26T00:50:12.310Z,0
2023-03-26T00:51:20.454Z,0
2023-03-26T00:52:29.737Z,0
2023-03-26T00:54:48.039Z,0
2023-03-26T00:55:57.145Z,0
2023-03-26T00:57:06.411Z,0
2023-03-26T00:58:15.494Z,0
2023-03-26T00:59:24.667Z,0
2023-03-26T01:00:32.857Z,0
2023-03-26T01:01:41.125Z,0
2023-03-26T01:02:50.239Z,0
2023-03-26T01:03:58.420Z,0
2023-03-26T01:05:06.651Z,0
2023-03-26T01:06:15.778Z,0
2023-03-26T01:07:24.942Z,0
2023-03-26T01:08:34.139Z,0
2023-03-26T01:09:43.365Z,0
2023-03-26T01:10:52.472Z,0
2023-03-26T01:12:01.634Z,0
2023-03-26T01:13:10.809Z,0
2023-03-26T01:14:19.972Z,0
2023-03-26T01:15:29.147Z,0
2023-03-26T01:16:38.336Z,0
2023-03-26T01:17:47.487Z,0
2023-03-26T01:18:56.727Z,0
2023-03-26T01:20:04.891Z,0
2023-03-26T01:21:14.160Z,0
2023-03-26T01:22:23.271Z,0
2023-03-26T01:23:32.433Z,0
2023-03-26T01:24:41.624Z,0
2023-03-26T01:25:50.722Z,0
2023-03-26T01:26:59.898Z,0
2023-03-26T01:28:08.107Z,0
2023-03-26T01:29:16.282Z,0
2023-03-26T01:30:24.481Z,0
2023-03-26T01:31:32.918Z,0
2023-03-26T01:32:41.832Z,0
2023-03-26T01:33:51.051Z,0
2023-03-26T01:35:00.186Z,0
2023-03-26T01:36:09.342Z,0
2023-03-26T01:37:18.519Z,0
2023-03-26T01:38:27.767Z,0
2023-03-26T01:40:46.044Z,0
2023-03-26T01:41:55.266Z,0
2023-03-26T01:43:04.376Z,0
2023-03-26T01:45:22.720Z,0
2023-03-26T01:46:30.933Z,0
2023-03-26T01:47:39.114Z,0
2023-03-26T01:48:48.284Z,0
2023-03-26T01:49:57.668Z,0
2023-03-26T01:51:06.705Z,0
2023-03-26T01:52:15.791Z,0
2023-03-26T01:53:24.970Z,0
2023-03-26T01:54:34.153Z,0
2023-03-26T01:55:43.321Z,0
2023-03-26T01:56:51.584Z,0
2023-03-26T01:58:00.676Z,0
2023-03-26T01:59:09.925Z,0
2023-03-26T02:00:18.054Z,0
2023-03-26T02:01:26.238Z,0
2023-03-26T02:02:35.403Z,0
2023-03-26T02:03:44.592Z,0
2023-03-26T02:04:53.761Z,0
2023-03-26T02:06:02.930Z,0
2023-03-26T02:07:12.113Z,0
2023-03-26T02:08:21.429Z,0
2023-03-26T02:09:30.450Z,0
2023-03-26T02:10:39.676Z,0
2023-03-26T02:11:48.795Z,0
2023-03-26T02:12:57.959Z,0
2023-03-26T02:14:07.144Z,0
2023-03-26T02:15:16.325Z,0
2023-03-26T02:16:24.496Z,0
2023-03-26T02:17:33.679Z,0
2023-03-26T02:18:42.872Z,0
2023-03-26T02:19:52.018Z,0
2023-03-26T02:21:01.188Z,0
2023-03-26T02:22:10.360Z,0
2023-03-26T02:23:19.542Z,0
2023-03-26T02:24:27.725Z,0
2023-03-26T02:25:35.911Z,0
2023-03-26T02:26:45.091Z,0
2023-03-26T02:27:54.262Z,0
2023-03-26T02:29:03.474Z,0
2023-03-26T02:30:12.604Z,0
2023-03-26T02:31:21.776Z,0
2023-03-26T02:32:31.052Z,0
2023-03-26T02:33:40.113Z,0
2023-03-26T02:34:49.302Z,0
2023-03-26T02:35:58.497Z,0
2023-03-26T02:37:07.650Z,0
2023-03-26T02:38:16.827Z,0
2023-03-26T02:39:25.990Z,0
2023-03-26T02:40:34.170Z,0
2023-03-26T02:41:43.341Z,0
2023-03-26T02:42:52.509Z,0
2023-03-26T02:44:01.694Z,0
2023-03-26T02:45:10.854Z,0
2023-03-26T02:46:20.032Z,0
2023-03-26T02:47:29.202Z,0
2023-03-26T02:48:37.425Z,0
2023-03-26T02:49:45.602Z,0
2023-03-26T02:50:54.773Z,0
2023-03-26T02:52:02.954Z,0
2023-03-26T02:53:11.150Z,0
2023-03-26T02:54:20.315Z,0
2023-03-26T02:55:29.488Z,0
2023-03-26T02:56:38.661Z,0
2023-03-26T02:57:47.842Z,0
2023-03-26T02:58:57.028Z,0
2023-03-26T03:00:06.186Z,0
2023-03-26T03:01:15.351Z,0
2023-03-26T03:02:24.623Z,0
2023-03-26T03:03:33.722Z,0
2023-03-26T03:04:42.897Z,0
2023-03-26T03:05:52.044Z,0
2023-03-26T03:07:01.220Z,0
2023-03-26T03:08:09.394Z,0
2023-03-26T03:09:18.579Z,0
2023-03-26T03:10:27.833Z,0
2023-03-26T03:11:36.920Z,0
2023-03-26T03:12:46.093Z,0
2023-03-26T03:13:55.291Z,0
2023-03-26T03:15:04.443Z,0
2023-03-26T03:16:12.657Z,0
2023-03-26T03:17:20.838Z,0
2023-03-26T03:18:29.029Z,0
2023-03-26T03:19:37.207Z,0
2023-03-26T03:20:46.389Z,0
2023-03-26T03:21:55.590Z,0
2023-03-26T03:23:04.731Z,0
2023-03-26T03:24:13.941Z,0
2023-03-26T03:25:23.129Z,0
2023-03-26T03:26:32.255Z,0
2023-03-26T03:27:41.419Z,0
2023-03-26T03:28:50.592Z,0
2023-03-26T03:29:59.770Z,0
2023-03-26T03:31:08.930Z,0
2023-03-26T03:32:18.103Z,0
2023-03-26T03:33:27.276Z,0
2023-03-26T03:34:35.478Z,0
2023-03-26T03:35:44.640Z,0
2023-03-26T03:36:53.808Z,0
2023-03-26T03:38:03.048Z,0
2023-03-26T03:39:12.178Z,0
2023-03-26T03:40:21.339Z,0
2023-03-26T03:41:30.513Z,0
2023-03-26T03:42:38.752Z,0
2023-03-26T03:43:46.891Z,0
2023-03-26T03:44:55.087Z,0
2023-03-26T03:46:03.291Z,0
2023-03-26T03:47:12.441Z,0
2023-03-26T03:48:21.615Z,0
2023-03-26T03:50:39.948Z,0
2023-03-26T03:51:49.130Z,0
2023-03-26T03:52:58.304Z,0
2023-03-26T03:54:07.479Z,0
2023-03-26T03:55:16.651Z,0
2023-03-26T03:56:25.817Z,0
2023-03-26T03:57:34.998Z,0
2023-03-26T03:58:44.157Z,0
2023-03-26T03:59:53.331Z,0
2023-03-26T04:01:01.523Z,0
2023-03-26T04:02:10.698Z,0
2023-03-26T04:03:19.872Z,0
2023-03-26T04:04:29.247Z,0
2023-03-26T04:05:38.215Z,0
2023-03-26T04:06:47.383Z,0
2023-03-26T04:07:56.579Z,0
2023-03-26T04:09:05.730Z,0
2023-03-26T04:10:13.949Z,0
2023-03-26T04:11:23.151Z,0
2023-03-26T04:12:31.298Z,0
2023-03-26T04:13:39.483Z,0
2023-03-26T04:14:48.659Z,0
2023-03-26T04:15:57.856Z,0
2023-03-26T04:17:06.991Z,0
2023-03-26T04:18:16.169Z,0
2023-03-26T04:19:25.347Z,0
2023-03-26T04:20:34.523Z,0
2023-03-26T04:21:43.685Z,0
2023-03-26T04:22:52.882Z,0
2023-03-26T04:24:02.044Z,0
2023-03-26T04:25:11.229Z,0
2023-03-26T04:26:20.391Z,0
2023-03-26T04:27:29.570Z,0
2023-03-26T04:28:37.737Z,0
2023-03-26T04:29:46.924Z,0
2023-03-26T04:30:56.082Z,0
2023-03-26T04:32:05.267Z,0
2023-03-26T04:33:14.435Z,0
2023-03-26T04:34:23.604Z,0
2023-03-26T04:35:32.870Z,0
2023-03-26T04:36:40.970Z,0
2023-03-26T04:37:49.183Z,0
2023-03-26T04:38:58.372Z,0
2023-03-26T04:40:07.504Z,0
2023-03-26T04:41:16.681Z,0
2023-03-26T04:42:25.858Z,0
2023-03-26T04:43:35.026Z,0
2023-03-26T04:44:44.183Z,0
2023-03-26T04:45:53.372Z,0
2023-03-26T04:47:02.556Z,0
2023-03-26T04:48:11.719Z,0
2023-03-26T04:49:20.877Z,0
2023-03-26T04:50:30.060Z,0
2023-03-26T04:51:39.254Z,0
2023-03-26T04:52:47.423Z,0
2023-03-26T04:53:56.598Z,0
2023-03-26T04:55:05.771Z,0
2023-03-26T04:56:14.936Z,0
2023-03-26T04:57:24.103Z,0
2023-03-26T04:58:33.537Z,0
2023-03-26T04:59:42.467Z,0
2023-03-26T05:00:51.692Z,0
2023-03-26T05:01:59.820Z,0
2023-03-26T05:03:08.030Z,0
2023-03-26T05:05:25.431Z,0
2023-03-26T05:06:33.596Z,0
2023-03-26T05:07:41.849Z,0
2023-03-26T05:08:49.974Z,0
2023-03-26T05:09:58.139Z,0
2023-03-26T05:11:07.314Z,0
2023-03-26T05:12:16.475Z,0
2023-03-26T05:13:25.654Z,0
2023-03-26T05:14:34.829Z,0
2023-03-26T05:15:44.014Z,0
2023-03-26T05:16:53.230Z,0
2023-03-26T05:18:02.358Z,0
2023-03-26T05:19:11.517Z,0
2023-03-26T05:20:20.709Z,5
2023-03-26T05:21:29.873Z,5
2023-03-26T05:22:39.033Z,5
2023-03-26T05:23:48.218Z,5
2023-03-26T05:24:56.397Z,5
2023-03-26T05:26:05.564Z,5
2023-03-26T05:27:14.748Z,5
2023-03-26T05:28:23.921Z,11
2023-03-26T05:29:33.098Z,11
2023-03-26T05:30:42.251Z,11
2023-03-26T05:31:51.444Z,11
2023-03-26T05:32:59.630Z,11
2023-03-26T05:34:07.826Z,16
2023-03-26T05:35:16.997Z,16
2023-03-26T05:36:26.170Z,16
2023-03-26T05:37:35.336Z,16
2023-03-26T05:38:43.531Z,22
2023-03-26T05:39:51.720Z,22
2023-03-26T05:41:00.900Z,22
2023-03-26T05:42:10.079Z,22
2023-03-26T05:43:19.239Z,22
2023-03-26T05:44:28.407Z,22
2023-03-26T05:45:37.631Z,28
2023-03-26T05:46:46.790Z,28
2023-03-26T05:47:54.963Z,28
2023-03-26T05:49:04.126Z,28
2023-03-26T05:50:13.296Z,33
2023-03-26T05:51:22.470Z,33
2023-03-26T05:52:31.635Z,33
2023-03-26T05:53:40.825Z,33
2023-03-26T05:54:50.001Z,39
2023-03-26T05:55:59.166Z,39
2023-03-26T05:57:08.325Z,39
2023-03-26T05:58:17.505Z,39
2023-03-26T05:59:26.685Z,45
2023-03-26T06:00:35.845Z,45
2023-03-26T06:01:45.024Z,45
2023-03-26T06:02:53.222Z,45
2023-03-26T06:04:01.397Z,50
2023-03-26T06:05:10.630Z,50
2023-03-26T06:06:18.811Z,50
2023-03-26T06:07:26.959Z,50
2023-03-26T06:08:36.128Z,56
2023-03-26T06:09:45.304Z,56
2023-03-26T06:10:54.644Z,56
2023-03-26T06:12:03.648Z,56
2023-03-26T06:13:12.832Z,61
2023-03-26T06:14:21.992Z,61
2023-03-26T06:15:31.175Z,61
2023-03-26T06:16:40.358Z,61
2023-03-26T06:17:49.538Z,61
2023-03-26T06:18:58.705Z,61
2023-03-26T06:20:07.861Z,61
2023-03-26T06:21:17.043Z,67
2023-03-26T06:22:25.261Z,67
2023-03-26T06:23:34.396Z,67
2023-03-26T06:24:43.569Z,67
2023-03-26T06:25:52.751Z,73
2023-03-26T06:27:01.915Z,73
2023-03-26T06:28:11.095Z,73
2023-03-26T06:29:20.253Z,73
2023-03-26T06:30:28.453Z,73
2023-03-26T06:31:36.646Z,73
2023-03-26T06:32:45.872Z,73
2023-03-26T06:33:54.987Z,78
2023-03-26T06:35:03.180Z,78
2023-03-26T06:36:11.361Z,78
2023-03-26T06:37:20.568Z,78
2023-03-26T06:38:29.705Z,78
2023-03-26T06:39:38.883Z,84
2023-03-26T06:40:48.061Z,84
2023-03-26T06:41:57.349Z,84
2023-03-26T06:43:06.431Z,84
2023-03-26T06:44:15.580Z,84
2023-03-26T06:45:24.747Z,84
2023-03-26T06:46:33.938Z,84
2023-03-26T06:47:43.097Z,84
2023-03-26T06:48:52.268Z,84
2023-03-26T06:50:01.445Z,84
2023-03-26T06:51:09.674Z,84
2023-03-26T06:52:18.798Z,84
2023-03-26T06:53:27.971Z,84
2023-03-26T06:54:37.150Z,84
2023-03-26T06:55:46.321Z,84
2023-03-26T06:56:55.536Z,84
2023-03-26T06:58:04.719Z,84
2023-03-26T06:59:12.853Z,84
2023-03-26T07:00:21.031Z,84
2023-03-26T07:01:29.243Z,84
2023-03-26T07:02:37.416Z,84
2023-03-26T07:03:46.709Z,90
2023-03-26T07:04:55.784Z,90
2023-03-26T07:06:05.182Z,90
2023-03-26T07:07:14.126Z,90
2023-03-26T07:08:23.291Z,90
2023-03-26T07:09:32.494Z,90
2023-03-26T07:10:41.644Z,95
2023-03-26T07:11:50.876Z,95
2023-03-26T07:13:00.032Z,95
2023-03-26T07:14:09.163Z,95
2023-03-26T07:15:18.343Z,95
2023-03-26T07:16:27.504Z,95
2023-03-26T07:17:35.771Z,101
2023-03-26T07:18:44.901Z,101
2023-03-26T07:19:54.031Z,101
2023-03-26T07:21:03.259Z,101
2023-03-26T07:22:12.377Z,101
2023-03-26T07:23:21.598Z,101
2023-03-26T07:24:30.718Z,101
2023-03-26T07:25:38.916Z,101
2023-03-26T07:26:47.148Z,106
2023-03-26T07:27:56.276Z,106
2023-03-26T07:29:04.475Z,112
2023-03-26T07:30:12.694Z,112
2023-03-26T07:31:21.833Z,118
2023-03-26T07:32:31.004Z,118
2023-03-26T07:33:40.237Z,118
2023-03-26T07:34:49.449Z,123
2023-03-26T07:35:58.535Z,123
2023-03-26T07:37:07.705Z,129
2023-03-26T07:38:16.908Z,129
2023-03-26T07:39:26.048Z,129
2023-03-26T07:40:35.257Z,135
2023-03-26T07:41:44.383Z,135
2023-03-26T07:42:53.565Z,135
2023-03-26T07:44:02.805Z,135
2023-03-26T07:45:10.913Z,129
2023-03-26T07:46:20.082Z,123
2023-03-26T07:47:29.332Z,118
2023-03-26T07:48:38.439Z,118
2023-03-26T07:49:47.665Z,112
2023-03-26T07:50:56.797Z,112
2023-03-26T07:52:05.987Z,118
2023-03-26T07:53:14.168Z,118
2023-03-26T07:54:22.406Z,123
2023-03-26T07:55:31.507Z,123
2023-03-26T07:56:40.683Z,129
2023-03-26T07:57:48.940Z,129
2023-03-26T07:58:57.063Z,129
2023-03-26T08:00:06.282Z,129
2023-03-26T08:01:15.394Z,135
2023-03-26T08:02:24.587Z,135
2023-03-26T08:03:33.785Z,135
2023-03-26T08:04:42.936Z,135
2023-03-26T08:05:52.150Z,135
2023-03-26T08:07:01.276Z,135
2023-03-26T08:08:10.436Z,135
2023-03-26T08:09:19.614Z,135
2023-03-26T08:10:28.791Z,135
2023-03-26T08:11:37.960Z,135
2023-03-26T08:12:47.142Z,135
2023-03-26T08:13:55.325Z,135
2023-03-26T08:15:04.483Z,135
2023-03-26T08:16:13.664Z,135
2023-03-26T08:17:22.871Z,135
2023-03-26T08:18:32.008Z,140
2023-03-26T08:19:41.173Z,140
2023-03-26T08:20:50.356Z,140
2023-03-26T08:21:58.543Z,135
2023-03-26T08:23:06.739Z,140
2023-03-26T08:24:14.926Z,140
2023-03-26T08:25:23.118Z,146
2023-03-26T08:26:32.289Z,151
2023-03-26T08:27:41.595Z,157
2023-03-26T08:28:50.662Z,163
2023-03-26T08:29:59.880Z,168
2023-03-26T08:31:09.033Z,168
2023-03-26T08:32:18.250Z,174
2023-03-26T08:33:27.421Z,180
2023-03-26T08:34:36.480Z,180
2023-03-26T08:35:45.799Z,180
2023-03-26T08:36:54.921Z,180
2023-03-26T08:38:04.119Z,185
2023-03-26T08:39:13.177Z,185
2023-03-26T08:40:21.380Z,191
2023-03-26T08:41:30.643Z,196
2023-03-26T08:42:39.719Z,196
2023-03-26T08:43:48.909Z,202
2023-03-26T08:44:58.083Z,202
2023-03-26T08:46:07.234Z,202
2023-03-26T08:47:16.478Z,208
2023-03-26T08:48:25.589Z,208
2023-03-26T08:49:34.750Z,213
2023-03-26T08:50:43.949Z,213
2023-03-26T08:51:52.122Z,213
2023-03-26T08:53:00.311Z,213
2023-03-26T08:54:09.483Z,213
2023-03-26T08:55:17.670Z,219
2023-03-26T08:56:25.996Z,213
2023-03-26T08:57:35.030Z,213
2023-03-26T08:58:44.206Z,208
2023-03-26T08:59:53.383Z,208
2023-03-26T09:01:02.557Z,208
2023-03-26T09:02:11.711Z,208
2023-03-26T09:03:21.010Z,208
2023-03-26T09:04:30.192Z,208
2023-03-26T09:05:39.251Z,208
2023-03-26T09:06:48.431Z,208
2023-03-26T09:07:57.586Z,208
2023-03-26T09:09:06.761Z,208
2023-03-26T09:10:15.919Z,202
2023-03-26T09:11:24.221Z,196
2023-03-26T09:12:33.531Z,191
2023-03-26T09:13:42.482Z,180
2023-03-26T09:14:51.663Z,174
2023-03-26T09:16:00.882Z,168
2023-03-26T09:17:10.002Z,163
2023-03-26T09:18:19.194Z,157
2023-03-26T09:19:27.356Z,151
2023-03-26T09:20:35.562Z,151
2023-03-26T09:21:44.776Z,151
2023-03-26T09:22:52.994Z,151
2023-03-26T09:24:01.093Z,151
2023-03-26T09:25:10.267Z,157
2023-03-26T09:26:19.578Z,157
2023-03-26T09:27:28.623Z,151
2023-03-26T09:28:37.791Z,146
2023-03-26T09:29:46.953Z,146
2023-03-26T09:30:56.132Z,146
2023-03-26T09:32:05.306Z,146
2023-03-26T09:33:14.509Z,146
2023-03-26T09:34:23.660Z,146
2023-03-26T09:35:32.815Z,140
2023-03-26T09:36:41.974Z,135
2023-03-26T09:37:51.171Z,123
2023-03-26T09:39:00.342Z,112
2023-03-26T09:40:08.529Z,112
2023-03-26T09:41:17.692Z,112
2023-03-26T09:42:26.889Z,118
2023-03-26T09:43:36.052Z,123
2023-03-26T09:44:45.292Z,129
2023-03-26T09:45:54.399Z,140
2023-03-26T09:47:02.589Z,146
2023-03-26T09:48:10.774Z,146
2023-03-26T09:49:19.935Z,146
2023-03-26T09:50:29.114Z,151
2023-03-26T09:51:37.304Z,151
2023-03-26T09:52:45.556Z,151
2023-03-26T09:53:54.752Z,157
2023-03-26T09:55:03.840Z,157
2023-03-26T09:56:13.019Z,151
2023-03-26T09:57:22.176Z,146
2023-03-26T09:58:31.359Z,140
2023-03-26T09:59:40.542Z,140
2023-03-26T10:00:49.700Z,146
2023-03-26T10:01:58.881Z,151
2023-03-26T10:03:08.050Z,157
2023-03-26T10:04:17.225Z,163
2023-03-26T10:05:26.399Z,168
2023-03-26T10:06:35.584Z,174
2023-03-26T10:07:43.758Z,174
2023-03-26T10:08:52.932Z,168
2023-03-26T10:10:02.093Z,157
2023-03-26T10:11:11.267Z,146
2023-03-26T10:12:20.441Z,135
2023-03-26T10:13:29.615Z,123
2023-03-26T10:14:38.786Z,112
2023-03-26T10:15:47.045Z,106
2023-03-26T10:16:55.162Z,95
2023-03-26T10:18:04.338Z,95
2023-03-26T10:19:13.543Z,90
2023-03-26T10:20:22.747Z,90
2023-03-26T10:21:31.949Z,84
2023-03-26T10:22:41.038Z,84
2023-03-26T10:23:50.216Z,90
2023-03-26T10:24:59.382Z,95
2023-03-26T10:26:08.603Z,101
2023-03-26T10:27:17.730Z,101
2023-03-26T10:28:26.894Z,112
2023-03-26T10:29:36.073Z,118
2023-03-26T10:30:45.249Z,123
2023-03-26T10:31:53.442Z,129
2023-03-26T10:33:02.598Z,140
2023-03-26T10:34:11.800Z,146
2023-03-26T10:35:20.962Z,146
2023-03-26T10:36:30.136Z,146
2023-03-26T10:37:39.356Z,146
2023-03-26T10:38:48.471Z,146
2023-03-26T10:39:56.654Z,140
2023-03-26T10:41:04.849Z,129
2023-03-26T10:42:13.061Z,123
2023-03-26T10:43:21.258Z,118
2023-03-26T10:44:30.397Z,112
2023-03-26T10:45:39.570Z,112
2023-03-26T10:46:48.737Z,112
2023-03-26T10:47:57.910Z,112
2023-03-26T10:49:07.081Z,112
2023-03-26T10:50:16.263Z,106
2023-03-26T10:51:25.438Z,112
2023-03-26T10:52:34.603Z,112
2023-03-26T10:53:43.782Z,118
2023-03-26T10:54:52.967Z,118
2023-03-26T10:56:02.120Z,112
2023-03-26T10:57:11.292Z,106
2023-03-26T10:58:19.485Z,106
2023-03-26T10:59:28.662Z,112
2023-03-26T11:00:37.835Z,118
2023-03-26T11:01:46.999Z,123
2023-03-26T11:02:56.177Z,135
2023-03-26T11:04:05.344Z,140
2023-03-26T11:05:14.517Z,151
2023-03-26T11:06:22.702Z,157
2023-03-26T11:07:30.905Z,163
2023-03-26T11:08:40.082Z,168
2023-03-26T11:09:48.284Z,174
2023-03-26T11:10:56.457Z,174
2023-03-26T11:12:05.643Z,174
2023-03-26T11:13:14.805Z,174
2023-03-26T11:14:23.977Z,168
2023-03-26T11:15:33.232Z,174
2023-03-26T11:16:42.328Z,168
2023-03-26T11:17:51.492Z,168
2023-03-26T11:19:00.665Z,168
2023-03-26T11:20:09.827Z,168
2023-03-26T11:21:19.044Z,168
2023-03-26T11:22:28.187Z,168
2023-03-26T11:23:37.505Z,163
2023-03-26T11:24:46.598Z,163
2023-03-26T11:25:55.765Z,163
2023-03-26T11:27:03.929Z,163
2023-03-26T11:28:13.158Z,163
2023-03-26T11:29:22.260Z,168
2023-03-26T11:30:31.505Z,163
2023-03-26T11:31:40.592Z,163
2023-03-26T11:32:49.774Z,163
2023-03-26T11:33:58.183Z,157
2023-03-26T11:35:06.139Z,157
2023-03-26T11:36:14.333Z,151
2023-03-26T11:37:22.516Z,151
2023-03-26T11:38:31.705Z,146
2023-03-26T11:39:40.852Z,140
2023-03-26T11:40:50.150Z,140
2023-03-26T11:41:59.260Z,140
2023-03-26T11:43:08.382Z,146
2023-03-26T11:44:17.548Z,146
2023-03-26T11:45:26.720Z,151
2023-03-26T11:46:36.026Z,151
2023-03-26T11:47:45.083Z,151
2023-03-26T11:48:54.306Z,157
2023-03-26T11:51:12.609Z,157
2023-03-26T11:52:20.780Z,151
2023-03-26T11:53:29.959Z,146
2023-03-26T11:54:39.123Z,140
2023-03-26T11:55:48.292Z,135
2023-03-26T11:56:57.482Z,129
2023-03-26T11:58:06.646Z,129
2023-03-26T11:59:15.812Z,123
2023-03-26T12:00:25.082Z,118
2023-03-26T12:01:33.182Z,112
2023-03-26T12:02:41.366Z,106
2023-03-26T12:03:50.539Z,106
2023-03-26T12:04:59.710Z,106
2023-03-26T12:06:07.915Z,101
2023-03-26T12:07:16.095Z,95
2023-03-26T12:08:25.257Z,101
2023-03-26T12:09:34.432Z,101
2023-03-26T12:10:43.663Z,106
2023-03-26T12:11:52.792Z,112
2023-03-26T12:13:01.960Z,118
2023-03-26T12:14:11.122Z,118
2023-03-26T12:15:20.347Z,123
2023-03-26T12:16:29.471Z,123
2023-03-26T12:17:38.643Z,129
2023-03-26T12:18:47.809Z,135
2023-03-26T12:19:56.997Z,140
2023-03-26T12:21:06.207Z,140
2023-03-26T12:23:23.522Z,140
2023-03-26T12:24:32.693Z,140
2023-03-26T12:25:41.879Z,135
2023-03-26T12:26:51.066Z,129
2023-03-26T12:28:00.234Z,123
2023-03-26T12:29:09.391Z,106
2023-03-26T12:30:18.563Z,101
2023-03-26T12:31:26.754Z,101
2023-03-26T12:32:34.943Z,101
2023-03-26T12:33:43.127Z,106
2023-03-26T12:34:51.381Z,118
2023-03-26T12:36:00.484Z,123
2023-03-26T12:37:09.768Z,129
2023-03-26T12:38:18.857Z,129
2023-03-26T12:39:28.037Z,135
2023-03-26T12:40:37.350Z,140
2023-03-26T12:41:46.379Z,146
2023-03-26T12:42:55.811Z,146
2023-03-26T12:44:42.501Z,135
2023-03-26T12:45:13.955Z,123
2023-03-26T12:46:23.076Z,129
2023-03-26T12:47:32.274Z,135
2023-03-26T12:48:41.416Z,129
2023-03-26T12:49:49.599Z,129
2023-03-26T12:50:58.895Z,129
2023-03-26T12:53:17.131Z,123
2023-03-26T12:54:26.295Z,129
2023-03-26T12:55:35.466Z,129
2023-03-26T12:56:44.679Z,123
2023-03-26T12:57:53.904Z,118
2023-03-26T12:59:02.980Z,123
2023-03-26T13:00:12.231Z,123
2023-03-26T13:01:21.329Z,123
2023-03-26T13:02:30.681Z,129
2023-03-26T13:03:39.678Z,129
2023-03-26T13:04:47.859Z,129
2023-03-26T13:05:57.066Z,129
2023-03-26T13:07:06.238Z,129
2023-03-26T13:08:15.515Z,135
2023-03-26T13:09:24.553Z,140
2023-03-26T13:10:33.748Z,140
2023-03-26T13:11:42.908Z,146
2023-03-26T13:12:52.125Z,146
2023-03-26T13:14:00.283Z,146
2023-03-26T13:15:08.453Z,151
2023-03-26T13:16:17.706Z,151
2023-03-26T13:17:26.834Z,146
2023-03-26T13:18:35.972Z,146
2023-03-26T13:19:45.134Z,140
2023-03-26T13:20:54.447Z,146
2023-03-26T13:22:03.497Z,151
2023-03-26T13:23:12.663Z,146
2023-03-26T13:24:21.840Z,146
2023-03-26T13:25:30.993Z,140
2023-03-26T13:26:40.179Z,135
2023-03-26T13:27:49.345Z,135
2023-03-26T13:28:58.587Z,135
2023-03-26T13:30:06.721Z,129
2023-03-26T13:31:14.912Z,123
2023-03-26T13:32:24.255Z,112
2023-03-26T13:33:33.245Z,106
2023-03-26T13:34:42.431Z,101
2023-03-26T13:35:51.606Z,101
2023-03-26T13:37:00.834Z,106
2023-03-26T13:38:09.181Z,101
2023-03-26T13:39:17.161Z,95
2023-03-26T13:40:25.356Z,95
2023-03-26T13:41:33.531Z,95
2023-03-26T13:42:42.711Z,90
2023-03-26T13:43:51.888Z,90
2023-03-26T13:45:01.051Z,84
2023-03-26T13:46:10.234Z,84
2023-03-26T13:47:19.386Z,78
2023-03-26T13:48:28.574Z,78
2023-03-26T13:49:37.743Z,73
2023-03-26T13:50:46.948Z,67
2023-03-26T13:51:56.092Z,67
2023-03-26T13:53:05.263Z,67
2023-03-26T13:55:23.610Z,73
2023-03-26T13:56:31.791Z,73
2023-03-26T13:57:40.958Z,78
2023-03-26T13:58:50.135Z,67
2023-03-26T13:59:59.311Z,61
2023-03-26T14:01:08.566Z,61
2023-03-26T14:02:17.649Z,61
2023-03-26T14:03:26.833Z,61
2023-03-26T14:04:35.996Z,61
2023-03-26T14:05:44.201Z,67
2023-03-26T14:06:52.384Z,67
2023-03-26T14:08:00.575Z,78
2023-03-26T14:09:08.768Z,78
2023-03-26T14:10:17.944Z,73
2023-03-26T14:11:27.117Z,67
2023-03-26T14:12:36.285Z,61
2023-03-26T14:13:45.451Z,61
2023-03-26T14:14:54.676Z,61
2023-03-26T14:16:03.808Z,61
2023-03-26T14:17:12.986Z,61
2023-03-26T14:18:22.147Z,61
2023-03-26T14:19:31.318Z,61
2023-03-26T14:20:40.498Z,61
2023-03-26T14:21:49.658Z,56
2023-03-26T14:22:58.838Z,56
2023-03-26T14:24:07.039Z,56
2023-03-26T14:25:16.291Z,56
2023-03-26T14:26:25.392Z,56
2023-03-26T14:27:34.531Z,56
2023-03-26T14:28:43.715Z,56
2023-03-26T14:29:52.891Z,61
2023-03-26T14:31:02.052Z,61
2023-03-26T14:32:10.269Z,67
2023-03-26T14:33:18.448Z,67
2023-03-26T14:34:27.616Z,73
2023-03-26T14:35:36.801Z,84
2023-03-26T14:36:44.987Z,95
2023-03-26T14:37:53.212Z,101
2023-03-26T14:39:02.358Z,106
2023-03-26T14:40:11.528Z,112
2023-03-26T14:41:20.699Z,118
2023-03-26T14:42:29.868Z,118
2023-03-26T14:43:39.042Z,118
2023-03-26T14:44:48.194Z,112
2023-03-26T14:45:57.377Z,112
2023-03-26T14:47:06.562Z,112
2023-03-26T14:48:15.728Z,112
2023-03-26T14:49:24.899Z,112
2023-03-26T14:50:34.084Z,106
2023-03-26T14:51:43.252Z,106
2023-03-26T14:52:51.456Z,106
2023-03-26T14:54:00.600Z,106
2023-03-26T14:55:09.798Z,106
2023-03-26T14:56:18.949Z,101
2023-03-26T14:57:28.137Z,101
2023-03-26T14:58:37.297Z,95
2023-03-26T14:59:46.475Z,90
2023-03-26T15:00:55.646Z,84
2023-03-26T15:02:04.816Z,78
2023-03-26T15:03:13.980Z,73
2023-03-26T15:04:23.170Z,73
2023-03-26T15:05:32.360Z,73
2023-03-26T15:06:41.509Z,73
2023-03-26T15:07:49.708Z,73
2023-03-26T15:08:57.880Z,73
2023-03-26T15:10:07.059Z,73
2023-03-26T15:11:16.258Z,73
2023-03-26T15:12:25.410Z,73
2023-03-26T15:13:34.570Z,78
2023-03-26T15:14:43.753Z,78
2023-03-26T15:15:52.925Z,78
2023-03-26T15:17:02.136Z,78
2023-03-26T15:18:11.294Z,78
2023-03-26T15:19:20.471Z,78
2023-03-26T15:20:29.614Z,78
2023-03-26T15:21:38.793Z,73
2023-03-26T15:22:48.062Z,73
2023-03-26T15:23:56.139Z,73
2023-03-26T15:25:05.312Z,73
2023-03-26T15:26:14.489Z,78
2023-03-26T15:27:23.703Z,78
2023-03-26T15:28:31.851Z,78
2023-03-26T15:29:40.068Z,78
2023-03-26T15:30:49.229Z,78
2023-03-26T15:31:58.399Z,78
2023-03-26T15:33:07.618Z,73
2023-03-26T15:34:16.730Z,67
2023-03-26T15:35:25.994Z,67
2023-03-26T15:36:35.127Z,61
2023-03-26T15:37:44.319Z,56
2023-03-26T15:38:53.526Z,56
2023-03-26T15:40:02.593Z,56
2023-03-26T15:41:11.774Z,56
2023-03-26T15:42:21.123Z,50
2023-03-26T15:43:30.124Z,50
2023-03-26T15:44:38.299Z,56
2023-03-26T15:45:47.461Z,56
2023-03-26T15:46:56.647Z,61
2023-03-26T15:48:05.833Z,67
2023-03-26T15:49:14.996Z,67
2023-03-26T15:50:24.168Z,67
2023-03-26T15:51:33.345Z,67
2023-03-26T15:52:42.531Z,67
2023-03-26T15:53:51.687Z,67
2023-03-26T15:55:00.853Z,67
2023-03-26T15:56:10.020Z,67
2023-03-26T15:57:19.195Z,73
2023-03-26T15:58:28.365Z,78
2023-03-26T15:59:36.681Z,90
2023-03-26T16:00:45.725Z,95
2023-03-26T16:01:54.907Z,101
2023-03-26T16:03:04.076Z,106
2023-03-26T16:04:13.243Z,112
2023-03-26T16:06:31.605Z,106
2023-03-26T16:07:40.809Z,106
2023-03-26T16:08:49.952Z,95
2023-03-26T16:09:59.137Z,90
2023-03-26T16:11:08.304Z,84
2023-03-26T16:12:17.456Z,78
2023-03-26T16:13:26.676Z,73
2023-03-26T16:14:35.818Z,67
2023-03-26T16:15:44.003Z,67
2023-03-26T16:16:53.171Z,67
2023-03-26T16:18:02.330Z,61
2023-03-26T16:19:11.514Z,61
2023-03-26T16:20:19.844Z,56
2023-03-26T16:21:27.899Z,56
2023-03-26T16:22:37.056Z,61
2023-03-26T16:23:46.251Z,61
2023-03-26T16:24:55.410Z,56
2023-03-26T16:26:04.587Z,56
2023-03-26T16:27:13.860Z,61
2023-03-26T16:28:22.933Z,67
2023-03-26T16:29:32.088Z,73
2023-03-26T16:30:41.343Z,73
2023-03-26T16:31:50.466Z,78
2023-03-26T16:32:59.629Z,78
2023-03-26T16:34:08.800Z,78